createdAt,value
2017-02-23T00:00:03.590Z,80.05
2017-02-23T00:05:03.565Z,80.05
2017-02-23T00:10:10.455Z,80.05
2017-02-23T00:15:03.381Z,79.86
2017-02-23T00:20:03.048Z,79.77
2017-02-23T00:25:03.766Z,79.68
2017-02-23T00:30:03.543Z,79.58
2017-02-23T00:35:03.297Z,79.49
2017-02-23T00:40:03.249Z,79.01
2017-02-23T00:45:03.307Z,78.91
2017-02-23T00:50:03.339Z,78.63
2017-02-23T00:55:03.190Z,78.63
2017-02-23T01:00:03.204Z,78.34
2017-02-23T01:05:03.124Z,78.16
2017-02-23T01:10:03.207Z,78.06
2017-02-23T01:15:02.908Z,77.87
2017-02-23T01:20:02.900Z,77.87
2017-02-23T01:25:03.035Z,77.77
2017-02-23T01:30:02.881Z,77.68
2017-02-23T01:35:02.846Z,77.58
2017-02-23T01:40:02.998Z,77.58
2017-02-23T01:45:02.813Z,77.49
2017-02-23T01:50:02.961Z,77.49
2017-02-23T01:55:02.797Z,77.49
2017-02-23T02:00:03.697Z,77.39
2017-02-23T02:05:03.593Z,77.49
2017-02-23T02:10:03.399Z,77.49
2017-02-23T02:15:03.429Z,77.58
2017-02-23T02:20:03.338Z,77.77
2017-02-23T02:25:03.344Z,77.77
2017-02-23T02:30:03.216Z,77.77
2017-02-23T02:35:03.014Z,77.77
2017-02-23T02:40:02.940Z,77.58
2017-02-23T02:45:02.789Z,77.58
2017-02-23T02:50:03.434Z,77.49
2017-02-23T02:55:03.438Z,77.11
2017-02-23T03:00:03.529Z,76.82
2017-02-23T03:05:03.521Z,76.63
2017-02-23T03:10:03.538Z,76.44
2017-02-23T03:15:03.192Z,76.16
2017-02-23T03:20:03.111Z,76.06
2017-02-23T03:25:02.973Z,75.96
2017-02-23T03:30:03.700Z,75.87
2017-02-23T03:35:03.404Z,75.78
2017-02-23T03:40:03.381Z,75.78
2017-02-23T03:45:03.311Z,75.68
2017-02-23T03:50:03.303Z,75.68
2017-02-23T03:55:03.161Z,75.59
2017-02-23T04:00:03.211Z,75.59
2017-02-23T04:05:03.146Z,75.59
2017-02-23T04:10:03.120Z,75.59
2017-02-23T04:15:02.833Z,75.59
2017-02-23T04:20:02.828Z,75.59
2017-02-23T04:25:03.575Z,75.59
2017-02-23T04:30:03.618Z,75.59
2017-02-23T04:35:03.589Z,75.43
2017-02-23T04:40:03.579Z,75.05
2017-02-23T04:45:03.372Z,74.67
2017-02-23T04:50:03.377Z,74.2
2017-02-23T04:55:03.379Z,73.82
2017-02-23T05:00:03.394Z,73.53
2017-02-23T05:05:03.165Z,73.53
2017-02-23T05:10:03.090Z,73.53
2017-02-23T05:15:03.141Z,73.53
2017-02-23T05:20:03.089Z,73.63
2017-02-23T05:25:02.963Z,73.63
2017-02-23T05:30:05.109Z,73.72
2017-02-23T05:35:03.059Z,73.72
2017-02-23T05:40:03.162Z,73.82
2017-02-23T05:45:03.141Z,73.82
2017-02-23T05:50:03.007Z,73.82
2017-02-23T05:55:03.713Z,73.91
2017-02-23T06:00:03.595Z,73.91
2017-02-23T06:05:03.297Z,73.91
2017-02-23T06:10:03.303Z,73.97
2017-02-23T06:15:03.138Z,74.07
2017-02-23T06:20:02.912Z,74.07
2017-02-23T06:25:03.719Z,74.16
2017-02-23T06:30:03.738Z,74.16
2017-02-23T06:35:03.679Z,74.16
2017-02-23T06:40:03.601Z,74.16
2017-02-23T06:45:03.317Z,74.07
2017-02-23T06:50:03.149Z,73.97
2017-02-23T06:55:03.109Z,73.97
2017-02-23T07:00:03.023Z,73.88
2017-02-23T07:05:02.867Z,73.88
2017-02-23T07:10:03.689Z,73.78
2017-02-23T07:15:03.431Z,73.78
2017-02-23T07:20:03.272Z,73.78
2017-02-23T07:25:03.072Z,73.78
2017-02-23T07:30:02.963Z,73.69
2017-02-23T07:35:03.744Z,73.69
2017-02-23T07:40:03.590Z,73.78
2017-02-23T07:45:03.338Z,73.97
2017-02-23T07:50:03.309Z,74.07
2017-02-23T07:55:03.326Z,74.35
2017-02-23T08:00:03.332Z,74.63
2017-02-23T08:05:03.364Z,75.02
2017-02-23T08:10:03.395Z,75.02
2017-02-23T08:15:03.154Z,74.92
2017-02-23T08:20:03.287Z,75.3
2017-02-23T08:25:03.579Z,76.35
2017-02-23T08:30:03.580Z,76.92
2017-02-23T08:35:03.334Z,78.82
2017-02-23T08:40:03.314Z,79.2
2017-02-23T08:45:03.192Z,80.44
2017-02-23T08:50:03.204Z,82.24
2017-02-23T08:55:03.097Z,83.1
2017-02-23T09:00:03.190Z,84.91
2017-02-23T09:05:03.258Z,86.61
2017-02-23T09:10:03.428Z,86.43
2017-02-23T09:15:03.417Z,84.33
2017-02-23T09:20:03.383Z,84.05
2017-02-23T09:25:03.367Z,83.95
2017-02-23T09:30:03.404Z,83.58
2017-02-23T09:35:03.467Z,84.43
2017-02-23T09:40:03.331Z,89.7
2017-02-23T09:45:03.241Z,93.98
2017-02-23T09:50:03.294Z,96.74
2017-02-23T09:55:03.358Z,97.88
2017-02-23T10:00:03.019Z,98.65
2017-02-23T10:05:03.796Z,98.65
2017-02-23T10:10:02.793Z,97.41
2017-02-23T10:15:03.686Z,97.6
2017-02-23T10:20:02.774Z,95.79
2017-02-23T10:25:03.580Z,93.41
2017-02-23T10:30:03.403Z,92.65
2017-02-23T10:35:03.173Z,93.79
2017-02-23T10:40:02.982Z,94.74
2017-02-23T10:45:02.823Z,93.41
2017-02-23T10:50:02.915Z,93.23
2017-02-23T10:55:03.587Z,92.56
2017-02-23T11:00:03.539Z,91.61
2017-02-23T11:05:03.644Z,91.61
2017-02-23T11:10:03.517Z,89.8
2017-02-23T11:15:03.273Z,89.32
2017-02-23T11:20:03.200Z,90.18
2017-02-23T11:25:03.197Z,88.18
2017-02-23T11:30:03.176Z,89.18
2017-02-23T11:35:03.165Z,91.13
2017-02-23T11:40:03.479Z,94.56
2017-02-23T11:45:03.729Z,97.6
2017-02-23T11:50:03.738Z,99.12
2017-02-23T11:55:03.370Z,99.99
2017-02-23T12:00:03.208Z,99.99
2017-02-23T12:05:03.164Z,99.99
2017-02-23T12:10:03.068Z,99.99
2017-02-23T12:15:03.157Z,99.99
2017-02-23T12:20:02.979Z,99.99
2017-02-23T12:25:02.963Z,99.99
2017-02-23T12:30:03.075Z,99.99
2017-02-23T12:35:03.303Z,99.99
2017-02-23T12:40:02.905Z,99.99
2017-02-23T12:45:03.697Z,99.99
2017-02-23T12:50:03.542Z,99.99
2017-02-23T12:55:03.383Z,99.99
2017-02-23T13:00:03.437Z,99.99
2017-02-23T13:05:03.525Z,99.99
2017-02-23T13:10:03.476Z,99.99
2017-02-23T13:15:03.593Z,98.65
2017-02-23T13:20:03.447Z,99.99
2017-02-23T13:25:03.247Z,98.27
2017-02-23T13:30:03.014Z,96.46
2017-02-23T13:35:02.940Z,97.6
2017-02-23T13:40:03.699Z,99.99
2017-02-23T13:45:02.862Z,99.99
2017-02-23T13:50:02.795Z,99.99
2017-02-23T13:55:03.686Z,99.99
2017-02-23T14:00:03.637Z,99.99
2017-02-23T14:05:03.720Z,99.99
2017-02-23T14:10:03.183Z,99.99
2017-02-23T14:15:02.966Z,99.99
2017-02-23T14:20:02.891Z,99.99
2017-02-23T14:25:03.726Z,99.99
2017-02-23T14:30:03.783Z,99.99
2017-02-23T14:35:03.617Z,99.99
2017-02-23T14:40:03.631Z,99.99
2017-02-23T14:45:03.544Z,99.99
2017-02-23T14:50:03.462Z,99.99
2017-02-23T14:55:02.919Z,99.99
2017-02-23T15:00:02.793Z,99.99
2017-02-23T15:05:03.650Z,99.99
2017-02-23T15:10:03.582Z,99.99
2017-02-23T15:15:03.494Z,99.99
2017-02-23T15:20:03.562Z,99.99
2017-02-23T15:25:03.487Z,99.99
2017-02-23T15:30:03.266Z,99.99
2017-02-23T15:35:03.387Z,99.99
2017-02-23T15:40:03.508Z,99.99
2017-02-23T15:45:03.360Z,99.99
2017-02-23T15:50:03.176Z,99.99
2017-02-23T15:55:03.258Z,99.99
2017-02-23T16:00:03.306Z,99.99
2017-02-23T16:05:03.098Z,99.99
2017-02-23T16:10:02.913Z,99.99
2017-02-23T16:15:03.668Z,99.99
2017-02-23T16:20:02.779Z,99.99
2017-02-23T16:25:02.946Z,99.99
2017-02-23T16:30:03.755Z,99.99
2017-02-23T16:35:03.529Z,99.99
2017-02-23T16:40:02.829Z,99.99
2017-02-23T16:45:02.780Z,99.99
2017-02-23T16:50:03.813Z,99.99
2017-02-23T16:55:02.935Z,99.99
2017-02-23T17:00:03.735Z,99.99
2017-02-23T17:05:02.797Z,99.99
2017-02-23T17:10:02.952Z,99.99
2017-02-23T17:15:02.991Z,99.99
2017-02-23T17:20:02.843Z,99.99
2017-02-23T17:25:02.920Z,99.99
2017-02-23T17:30:02.953Z,99.99
2017-02-23T17:35:03.742Z,99.99
2017-02-23T17:40:02.892Z,99.99
2017-02-23T17:45:02.982Z,99.99
2017-02-23T17:50:02.817Z,99.99
2017-02-23T17:55:03.711Z,99.99
2017-02-23T18:00:02.840Z,99.99
2017-02-23T18:05:02.804Z,99.99
2017-02-23T18:10:03.545Z,99.99
2017-02-23T18:15:03.487Z,99.99
2017-02-23T18:20:03.418Z,99.99
2017-02-23T18:25:03.169Z,99.99
2017-02-23T18:30:03.290Z,99.99
2017-02-23T18:35:03.547Z,99.99
2017-02-23T18:40:03.444Z,99.99
2017-02-23T18:45:03.296Z,99.99
2017-02-23T18:50:03.382Z,99.99
2017-02-23T18:55:03.090Z,99.99
2017-02-23T19:00:02.910Z,99.99
2017-02-23T19:05:03.672Z,99.99
2017-02-23T19:10:03.693Z,99.99
2017-02-23T19:15:03.483Z,99.99
2017-02-23T19:20:03.373Z,99.99
2017-02-23T19:25:03.202Z,99.99
2017-02-23T19:30:03.186Z,99.99
2017-02-23T19:35:03.049Z,99.99
2017-02-23T19:40:02.902Z,99.99
2017-02-23T19:45:02.887Z,99.99
2017-02-23T19:50:03.713Z,99.99
2017-02-23T19:55:03.638Z,99.99
2017-02-23T20:00:03.727Z,99.99
2017-02-23T20:05:03.453Z,99.99
2017-02-23T20:10:03.317Z,99.99
2017-02-23T20:15:03.315Z,99.99
2017-02-23T20:20:03.401Z,99.99
2017-02-23T20:25:03.233Z,99.99
2017-02-23T20:30:02.991Z,99.99
2017-02-23T20:35:02.994Z,99.99
2017-02-23T20:40:02.774Z,99.99
2017-02-23T20:45:03.520Z,99.99
2017-02-23T20:50:03.227Z,99.99
2017-02-23T20:55:02.897Z,99.99
2017-02-23T21:00:03.701Z,99.99
2017-02-23T21:05:03.572Z,99.99
2017-02-23T21:10:03.667Z,99.99
2017-02-23T21:15:02.767Z,99.99
2017-02-23T21:20:03.659Z,99.99
2017-02-23T21:25:03.506Z,99.99
2017-02-23T21:30:03.300Z,99.99
2017-02-23T21:35:03.395Z,99.99
2017-02-23T21:40:03.482Z,99.99
2017-02-23T21:45:03.355Z,99.99
2017-02-23T21:50:03.075Z,99.99
2017-02-23T21:55:02.861Z,99.99
2017-02-23T22:00:03.856Z,99.99
2017-02-23T22:05:02.853Z,99.99
2017-02-23T22:10:02.905Z,99.99
2017-02-23T22:15:03.010Z,99.99
2017-02-23T22:20:03.296Z,99.99
2017-02-23T22:25:03.037Z,99.99
2017-02-23T22:30:03.330Z,99.99
2017-02-23T22:35:03.603Z,99.99
2017-02-23T22:40:03.379Z,99.99
2017-02-23T22:45:03.029Z,99.99
2017-02-23T22:50:02.896Z,99.99
2017-02-23T22:55:03.658Z,99.99
2017-02-23T23:00:03.464Z,99.99
2017-02-23T23:05:03.315Z,99.99
2017-02-23T23:10:03.176Z,99.99
2017-02-23T23:15:03.291Z,99.99
2017-02-23T23:20:03.173Z,99.99
2017-02-23T23:25:03.154Z,99.99
2017-02-23T23:30:02.913Z,99.99
2017-02-23T23:35:02.931Z,99.99
2017-02-23T23:40:02.797Z,99.99
2017-02-23T23:45:02.921Z,99.99
2017-02-23T23:50:03.741Z,99.99
2017-02-23T23:55:02.765Z,99.99
